Česky Dansk Deutsch English Español Suomi Français Magyar Italiano Nederlands norsk Polski Português svenska Türkçe

 

Het Weer

Agen (Frankrijk)

16:00, 19 augustus 2016 (GMT)

NWNNE
WE
SWSSE
Home            
Agen Auch Bergerac Toulouse / Blagnac Mont-De-Marsan Toulouse / Francazal Perigueux Pau Albi Bordeaux / Merignac Brive St-Girons Cazaux Dax Biscarosse Rodez Cassagnes-Begonhes Aurillac Carcassonne Cognac Biarritz Limoges San Sebastian / Fuenterrabia

Om een weerknop op uw website of weblog te plaatsen, copieer onderstaande code en plak die in uw pagina. In het eerste vakje staat HTML-code, in het tweede vakje UBB-code.


Add to Google

Details

Wind speed:3 bf, 8 kn, 4.1 m/s, 9.2 miles/h, 14.8 km/h
Wind direction:NNW, 340°
Visibility:Greater than 10000 m, 10 km, 32800 ft, 6.2 miles
Clouds:CAVOC
Temperature:30°C, 86°F
Gefühlte Temperatur:29°C, 85°F
Dew-point:13°C, 55°F
Atmospheric pressure:1011 hPa, 758.3 mmHg, 29.85 inHg, 0.998 atm
Relative humidity:35.3 %
METAR:LFBA 191600Z AUTO 34008KT CAVOK 30/13 Q1011 NOSIG

Snelkoppelingen

Actuele weersinformatie van de hele wereld. Voeg locaties toe met het plus (+) symbool. Deze snelkoppelingen kunnen worden toegevoegd aan Google.

Lid van de Technetium groep

website free tracking
StatCounter NetStat W3C Validator

25-09-2022 01:00:26
astro.technetium.be money.technetium.be phote.technetium.be tafeltennistafel.technetium.be www.ligfiets.net